Time;durP1;ratioP1;P1;durP2;ratioP2;P2;SDS_P1;SDS_P2;PMS_P1;PMS_P2;Temp;Humidity;BMP_temperature;BMP_pressure;BME280_temperature;BME280_humidity;BME280_pressure;Samples;Min_cycle;Max_cycle;Signal;HPM_P1;HPM_P2
2023/12/27 00:02:40;;;;;;;1.17;0.53;;;4.10;99.90;;;;;;8196163;28;20496;-66
2023/12/27 00:06:40;;;;;;;3.33;0.87;;;4.10;36.70;;;;;;8202610;28;20243;-66
2023/12/27 00:10:41;;;;;;;2.23;0.77;;;4.00;99.90;;;;;;8196163;28;20246;-65
2023/12/27 00:14:42;;;;;;;2.30;1.10;;;3.90;99.90;;;;;;8198125;28;20208;-67
2023/12/27 00:18:43;;;;;;;1.40;0.90;;;3.90;99.90;;;;;;8200046;28;20200;-67
2023/12/27 00:22:43;;;;;;;5.30;0.90;;;3.80;99.90;;;;;;8202649;28;20206;-65
2023/12/27 00:26:44;;;;;;;2.50;0.90;;;3.70;99.90;;;;;;8199104;28;20259;-66
2023/12/27 00:30:48;;;;;;;2.20;0.67;;;3.60;1.00;;;;;;8195631;28;20219;-66
2023/12/27 00:34:49;;;;;;;0.93;0.77;;;3.60;1.00;;;;;;8201611;28;20193;-66
2023/12/27 00:38:50;;;;;;;3.50;0.90;;;3.60;1.00;;;;;;8202075;28;20192;-65
2023/12/27 00:42:51;;;;;;;3.67;1.03;;;3.50;99.90;;;;;;8203329;28;20434;-66
2023/12/27 00:46:54;;;;;;;2.77;0.70;;;3.50;99.90;;;;;;8201488;28;20633;-67
2023/12/27 00:50:57;;;;;;;5.70;1.50;;;3.40;1.00;;;;;;8209506;28;20191;-64
2023/12/27 00:54:58;;;;;;;4.13;0.80;;;3.50;99.90;;;;;;8199895;28;20196;-65
2023/12/27 00:58:59;;;;;;;8.33;1.07;;;3.30;99.90;;;;;;8204145;28;20207;-65
2023/12/27 01:03:00;;;;;;;4.27;1.10;;;3.30;99.90;;;;;;8205929;28;20199;-65
2023/12/27 01:07:00;;;;;;;7.50;1.30;;;3.20;97.20;;;;;;8201849;28;20626;-66
2023/12/27 01:11:01;;;;;;;2.17;0.67;;;3.10;99.90;;;;;;8207520;28;20220;-64
2023/12/27 01:15:05;;;;;;;3.53;0.60;;;3.10;99.90;;;;;;8201198;28;20204;-66
2023/12/27 01:19:06;;;;;;;2.43;1.00;;;2.90;99.90;;;;;;8207188;28;20193;-65
2023/12/27 01:23:07;;;;;;;3.07;0.90;;;2.90;99.90;;;;;;8203541;28;20196;-64
2023/12/27 01:27:07;;;;;;;8.03;0.97;;;2.80;1.00;;;;;;8199727;28;20215;-64
2023/12/27 01:31:09;;;;;;;5.17;0.87;;;2.80;99.90;;;;;;8202850;28;20192;-66
2023/12/27 01:35:10;;;;;;;1.80;0.93;;;2.70;99.90;;;;;;8202814;28;20333;-65
2023/12/27 01:39:11;;;;;;;5.70;1.30;;;2.80;99.90;;;;;;8203118;28;20603;-64
2023/12/27 01:43:12;;;;;;;3.07;1.03;;;2.80;99.90;;;;;;8199874;28;20201;-66
2023/12/27 01:47:13;;;;;;;1.63;0.70;;;2.70;99.90;;;;;;8210983;28;21186;-64
2023/12/27 01:51:14;;;;;;;6.40;1.53;;;2.70;27.40;;;;;;8203853;28;20180;-65
2023/12/27 01:55:16;;;;;;;4.83;1.10;;;2.70;1.00;;;;;;8202505;28;20199;-65
2023/12/27 01:59:19;;;;;;;6.33;1.13;;;2.80;1.00;;;;;;8200179;28;20201;-66
2023/12/27 02:03:21;;;;;;;5.87;1.10;;;2.70;1.00;;;;;;8195229;28;20267;-67
2023/12/27 02:07:22;;;;;;;2.23;0.97;;;2.70;99.90;;;;;;8199389;28;20220;-65
2023/12/27 02:11:23;;;;;;;2.43;1.10;;;2.70;1.00;;;;;;8207503;28;20211;-65
2023/12/27 02:15:24;;;;;;;5.77;1.43;;;2.70;83.00;;;;;;8202164;28;20278;-65
2023/12/27 02:19:27;;;;;;;4.33;1.10;;;2.70;1.00;;;;;;8197302;28;20220;-65
2023/12/27 02:23:29;;;;;;;6.73;1.40;;;2.70;99.90;;;;;;8207286;28;20193;-65
2023/12/27 02:27:29;;;;;;;7.63;1.23;;;2.60;99.90;;;;;;8205726;28;20219;-65
2023/12/27 02:31:30;;;;;;;5.07;1.27;;;2.60;99.90;;;;;;8207681;28;20196;-66
2023/12/27 02:35:31;;;;;;;9.87;1.40;;;2.60;99.90;;;;;;8213382;28;20487;-66
2023/12/27 02:39:32;;;;;;;4.77;1.30;;;2.50;99.90;;;;;;8199738;28;20197;-67
2023/12/27 02:43:32;;;;;;;3.43;1.00;;;2.40;99.90;;;;;;8199659;28;20364;-66
2023/12/27 02:47:34;;;;;;;1.97;0.80;;;2.40;99.90;;;;;;8201788;28;20213;-65
2023/12/27 02:51:34;;;;;;;5.10;1.30;;;2.40;99.90;;;;;;8206988;28;20185;-64
2023/12/27 02:55:35;;;;;;;4.47;1.50;;;2.40;99.90;;;;;;8200528;28;20189;-68
2023/12/27 02:59:36;;;;;;;6.70;1.27;;;2.30;99.90;;;;;;8193940;28;20196;-66
2023/12/27 03:03:36;;;;;;;2.70;1.00;;;2.40;99.90;;;;;;8187172;28;20291;-67
2023/12/27 03:07:37;;;;;;;4.27;1.00;;;2.50;99.90;;;;;;8196421;28;20305;-66
2023/12/27 03:11:38;;;;;;;3.93;1.00;;;2.60;99.90;;;;;;8185151;28;20189;-66
2023/12/27 03:15:39;;;;;;;4.80;1.37;;;2.50;99.90;;;;;;8190943;28;20292;-66
2023/12/27 03:19:40;;;;;;;5.23;1.00;;;2.40;99.90;;;;;;8193324;28;20280;-66
2023/12/27 03:23:41;;;;;;;4.37;1.30;;;2.40;99.90;;;;;;8194011;28;20185;-65
2023/12/27 03:27:41;;;;;;;5.00;1.57;;;2.30;99.90;;;;;;8198787;28;20256;-66
2023/12/27 03:31:42;;;;;;;3.80;1.03;;;2.30;99.90;;;;;;8191553;28;20834;-66
2023/12/27 03:35:43;;;;;;;1.80;0.80;;;2.30;99.90;;;;;;8202472;28;20706;-66
2023/12/27 03:39:44;;;;;;;4.47;1.27;;;2.20;99.90;;;;;;8208258;28;20204;-67
2023/12/27 03:43:44;;;;;;;5.33;1.17;;;2.10;99.90;;;;;;8207886;28;20192;-66
2023/12/27 03:47:45;;;;;;;3.23;0.90;;;1.90;99.90;;;;;;8199228;28;20248;-66
2023/12/27 03:51:46;;;;;;;3.90;0.90;;;1.80;1.00;;;;;;8194599;28;20227;-66
2023/12/27 03:55:47;;;;;;;2.07;0.70;;;1.70;99.90;;;;;;8196583;28;20199;-65
2023/12/27 03:59:47;;;;;;;2.97;1.20;;;1.60;99.90;;;;;;8197719;28;20184;-65
2023/12/27 04:03:48;;;;;;;2.87;1.23;;;1.50;99.90;;;;;;8192956;28;20212;-65
2023/12/27 04:07:49;;;;;;;2.77;0.80;;;1.40;1.00;;;;;;8195065;28;20225;-65
2023/12/27 04:11:50;;;;;;;2.13;1.00;;;1.30;1.00;;;;;;8192330;28;20207;-65
2023/12/27 04:15:50;;;;;;;4.07;0.90;;;1.30;99.90;;;;;;8189332;28;20197;-66
2023/12/27 04:19:52;;;;;;;4.70;0.97;;;1.30;99.90;;;;;;8196951;28;20204;-65
2023/12/27 04:23:53;;;;;;;4.93;1.17;;;1.30;99.90;;;;;;8198645;28;20215;-65
2023/12/27 04:27:53;;;;;;;7.27;1.27;;;1.30;99.90;;;;;;8200510;28;20220;-65
2023/12/27 04:31:54;;;;;;;3.73;1.30;;;1.30;99.90;;;;;;8196374;28;20232;-65
2023/12/27 04:35:55;;;;;;;5.13;1.20;;;1.30;1.00;;;;;;8190282;28;20188;-65
2023/12/27 04:39:56;;;;;;;4.30;1.20;;;1.30;1.00;;;;;;8193620;28;20192;-65
2023/12/27 04:43:57;;;;;;;5.90;1.30;;;1.30;69.80;;;;;;8193410;28;20184;-65
2023/12/27 04:47:57;;;;;;;2.77;1.10;;;1.40;99.90;;;;;;8197587;28;20220;-65
2023/12/27 04:51:58;;;;;;;6.33;1.20;;;1.40;99.90;;;;;;8193921;28;20188;-64
2023/12/27 04:55:59;;;;;;;4.30;1.10;;;1.40;99.90;;;;;;8192236;28;20200;-64
2023/12/27 04:59:59;;;;;;;3.97;1.20;;;1.40;99.90;;;;;;8192730;28;20323;-65
2023/12/27 05:04:00;;;;;;;5.33;1.37;;;1.40;99.90;;;;;;8194723;28;20517;-65
2023/12/27 05:08:01;;;;;;;7.20;1.20;;;1.40;99.90;;;;;;8206795;28;20220;-64
2023/12/27 05:12:03;;;;;;;4.83;1.10;;;1.40;99.90;;;;;;8205643;28;20189;-63
2023/12/27 05:16:17;;;;;;;6.00;1.20;;;1.40;99.90;;;;;;8219586;28;20184;-66
2023/12/27 05:20:18;;;;;;;6.50;1.30;;;1.40;99.90;;;;;;8209481;28;20184;-64
2023/12/27 05:24:19;;;;;;;8.37;1.30;;;1.50;99.90;;;;;;8206613;28;20706;-66
2023/12/27 05:28:19;;;;;;;7.93;2.23;;;1.50;99.90;;;;;;8189218;28;20181;-66
2023/12/27 05:32:20;;;;;;;6.17;2.20;;;1.40;99.90;;;;;;8198311;28;20286;-65
2023/12/27 05:36:21;;;;;;;5.37;1.17;;;1.40;99.90;;;;;;8190318;28;20196;-65
2023/12/27 05:40:22;;;;;;;6.03;1.33;;;1.40;99.90;;;;;;8189608;28;20247;-63
2023/12/27 05:44:22;;;;;;;7.70;1.57;;;1.40;99.90;;;;;;8193362;28;20212;-66
2023/12/27 05:48:23;;;;;;;9.27;1.27;;;1.40;99.90;;;;;;8196419;28;20184;-65
2023/12/27 05:52:24;;;;;;;10.20;1.20;;;1.30;99.90;;;;;;8191791;28;20180;-64
2023/12/27 05:56:24;;;;;;;7.47;1.47;;;1.20;99.90;;;;;;8188677;28;20220;-64
2023/12/27 06:00:25;;;;;;;4.37;1.23;;;1.20;99.90;;;;;;8188933;28;20189;-64
2023/12/27 06:04:27;;;;;;;5.00;1.10;;;1.10;99.90;;;;;;8189539;28;20208;-64
2023/12/27 06:08:27;;;;;;;6.17;1.63;;;1.10;99.90;;;;;;8187233;28;20184;-65
2023/12/27 06:12:28;;;;;;;4.63;1.70;;;1.10;99.90;;;;;;8191141;28;20241;-65
2023/12/27 06:16:29;;;;;;;6.97;1.47;;;1.10;99.90;;;;;;8194455;28;20220;-65
2023/12/27 06:20:30;;;;;;;6.43;1.30;;;1.10;99.90;;;;;;8191442;28;20192;-65
2023/12/27 06:24:31;;;;;;;5.60;1.60;;;1.10;99.90;;;;;;8189625;28;20185;-65
2023/12/27 06:28:32;;;;;;;5.83;1.17;;;1.00;99.90;;;;;;8187640;28;20246;-65
2023/12/27 06:32:33;;;;;;;8.70;1.70;;;1.10;99.90;;;;;;8191547;28;20205;-65
2023/12/27 06:36:34;;;;;;;6.20;1.83;;;1.10;99.90;;;;;;8195384;28;20199;-65
2023/12/27 06:40:35;;;;;;;9.53;1.83;;;1.10;99.90;;;;;;8197077;28;20196;-65
2023/12/27 06:44:38;;;;;;;2.73;1.00;;;1.10;99.90;;;;;;8177209;28;20647;-64
2023/12/27 06:48:42;;;;;;;6.03;1.13;;;1.10;99.90;;;;;;8201027;28;20192;-66
2023/12/27 06:52:43;;;;;;;5.27;1.33;;;1.10;99.90;;;;;;8198338;28;20195;-65
2023/12/27 06:56:44;;;;;;;4.63;1.47;;;1.00;99.90;;;;;;8191037;28;20200;-64
2023/12/27 07:00:44;;;;;;;4.23;1.53;;;1.10;99.90;;;;;;8194326;28;20717;-64
2023/12/27 07:04:45;;;;;;;7.30;1.63;;;1.00;99.90;;;;;;8195840;28;20235;-64
2023/12/27 07:08:46;;;;;;;4.87;1.47;;;1.00;99.90;;;;;;8191241;28;20590;-64
2023/12/27 07:12:47;;;;;;;5.07;1.70;;;1.00;99.90;;;;;;8193779;28;20205;-64
2023/12/27 07:16:48;;;;;;;7.67;1.57;;;1.00;99.90;;;;;;8189029;28;20189;-64
2023/12/27 07:20:48;;;;;;;3.23;1.40;;;1.00;99.90;;;;;;8199986;28;20193;-64
2023/12/27 07:24:50;;;;;;;7.63;1.50;;;1.00;99.90;;;;;;8197387;28;20228;-64
2023/12/27 07:28:50;;;;;;;7.03;1.67;;;1.00;99.90;;;;;;8197425;28;20272;-64
2023/12/27 07:32:52;;;;;;;4.00;1.50;;;1.00;99.90;;;;;;8191279;28;20228;-64
2023/12/27 07:36:53;;;;;;;6.77;2.30;;;1.00;99.90;;;;;;8195861;28;20230;-64
2023/12/27 07:40:56;;;;;;;6.97;1.33;;;1.10;99.90;;;;;;8193206;28;20256;-64
2023/12/27 07:44:56;;;;;;;5.63;1.70;;;1.10;99.90;;;;;;8191418;28;20300;-65
2023/12/27 07:48:57;;;;;;;13.80;1.70;;;1.20;99.90;;;;;;8216018;28;20181;-65
2023/12/27 07:52:58;;;;;;;7.77;1.60;;;1.20;99.90;;;;;;8214669;28;20489;-65
2023/12/27 07:56:59;;;;;;;4.97;1.43;;;1.30;99.90;;;;;;8204928;28;20208;-65
2023/12/27 08:01:00;;;;;;;8.30;1.83;;;1.40;99.90;;;;;;8217765;28;20247;-64
2023/12/27 08:05:00;;;;;;;10.00;2.43;;;1.50;99.90;;;;;;8209771;28;20220;-65
2023/12/27 08:09:01;;;;;;;5.47;1.63;;;1.60;99.90;;;;;;8211788;28;21316;-66
2023/12/27 08:13:02;;;;;;;6.67;1.83;;;1.70;99.90;;;;;;8207721;28;20243;-66
2023/12/27 08:17:04;;;;;;;8.27;2.00;;;1.80;99.90;;;;;;8217394;28;20216;-65
2023/12/27 08:21:04;;;;;;;5.53;2.13;;;1.90;99.90;;;;;;8214164;28;20307;-65
2023/12/27 08:25:12;;;;;;;7.10;1.43;;;2.00;99.90;;;;;;8213287;28;20216;-65
2023/12/27 08:29:12;;;;;;;3.13;1.43;;;2.10;99.90;;;;;;8227941;28;20296;-65
2023/12/27 08:33:13;;;;;;;6.57;2.00;;;2.20;99.90;;;;;;8228240;28;20208;-64
2023/12/27 08:37:15;;;;;;;5.83;1.50;;;2.30;99.90;;;;;;8215794;28;20208;-63
2023/12/27 08:41:15;;;;;;;5.87;1.87;;;2.40;99.90;;;;;;8214907;28;20212;-65
2023/12/27 08:45:16;;;;;;;8.77;1.97;;;2.60;99.90;;;;;;8217339;28;20305;-63
2023/12/27 08:49:17;;;;;;;9.80;2.23;;;2.70;99.90;;;;;;8216892;28;20269;-64
2023/12/27 08:53:18;;;;;;;6.07;1.83;;;2.80;99.90;;;;;;8226721;28;20292;-66
2023/12/27 08:57:19;;;;;;;6.90;1.80;;;2.90;99.90;;;;;;8200955;28;20225;-64
2023/12/27 09:01:20;;;;;;;9.47;1.83;;;3.00;99.90;;;;;;8186755;28;20428;-64
2023/12/27 09:05:21;;;;;;;6.30;1.80;;;3.10;99.90;;;;;;8195593;28;20279;-65
2023/12/27 09:09:21;;;;;;;5.17;1.80;;;3.20;99.90;;;;;;8205713;28;20243;-64
2023/12/27 09:13:23;;;;;;;5.17;1.73;;;3.30;99.90;;;;;;8221891;28;20196;-63
2023/12/27 09:17:24;;;;;;;5.10;2.33;;;3.40;99.90;;;;;;8196919;28;20211;-65
2023/12/27 09:21:25;;;;;;;7.53;2.50;;;3.50;99.90;;;;;;8190171;28;20196;-65
2023/12/27 09:25:25;;;;;;;9.20;2.77;;;3.60;99.90;;;;;;8165620;28;20525;-66
2023/12/27 09:29:27;;;;;;;11.83;2.47;;;3.70;99.90;;;;;;8164996;28;20196;-65
2023/12/27 09:33:27;;;;;;;5.40;1.73;;;3.90;99.90;;;;;;8156747;28;20201;-64
2023/12/27 09:37:28;;;;;;;3.63;1.60;;;4.00;98.10;;;;;;8159004;28;20201;-65
2023/12/27 09:41:29;;;;;;;25.10;13.70;;;4.20;99.90;;;;;;8160315;29;20314;-64
2023/12/27 09:45:34;;;;;;;9.93;1.93;;;4.30;77.40;;;;;;8160050;28;20217;-65
2023/12/27 09:49:36;;;;;;;10.90;5.37;;;4.40;1.00;;;;;;8161608;28;20194;-64
2023/12/27 09:53:40;;;;;;;11.67;3.23;;;4.50;99.90;;;;;;8163097;28;20194;-64
2023/12/27 09:57:45;;;;;;;6.10;2.43;;;4.60;99.90;;;;;;8171165;28;20189;-65
2023/12/27 10:01:51;;;;;;;4.47;2.13;;;4.70;99.90;;;;;;8157216;28;20201;-64
2023/12/27 10:06:00;;;;;;;7.63;2.77;;;4.70;99.90;;;;;;8162975;29;20320;-65
2023/12/27 10:10:01;;;;;;;14.77;4.97;;;4.80;99.90;;;;;;8151027;29;20178;-65
2023/12/27 10:14:04;;;;;;;6.30;1.73;;;4.90;99.90;;;;;;8158088;28;20186;-65
2023/12/27 10:18:05;;;;;;;6.37;1.60;;;5.10;99.90;;;;;;8175062;29;20201;-65
2023/12/27 10:22:07;;;;;;;7.93;1.70;;;5.10;99.90;;;;;;8184595;28;20221;-64
2023/12/27 10:26:08;;;;;;;6.97;2.33;;;5.20;99.90;;;;;;8170105;28;20235;-65
2023/12/27 10:30:10;;;;;;;9.00;3.07;;;5.30;99.90;;;;;;8160401;28;20209;-65
2023/12/27 10:34:11;;;;;;;40.93;20.53;;;5.40;99.90;;;;;;8167240;29;20193;-65
2023/12/27 10:38:12;;;;;;;21.77;10.57;;;5.40;99.90;;;;;;8183073;28;20201;-66
2023/12/27 10:42:17;;;;;;;9.70;4.43;;;5.50;99.90;;;;;;8202289;28;20241;-64
2023/12/27 10:46:18;;;;;;;7.00;3.20;;;5.50;99.90;;;;;;8191481;28;20228;-64
2023/12/27 10:50:21;;;;;;;17.77;7.67;;;5.50;95.60;;;;;;8184186;28;20199;-64
2023/12/27 10:54:22;;;;;;;10.77;4.37;;;5.60;92.70;;;;;;8186679;28;20200;-62
2023/12/27 10:58:24;;;;;;;11.10;4.20;;;5.60;89.20;;;;;;8178098;28;20220;-63
2023/12/27 11:02:26;;;;;;;7.57;1.93;;;5.60;68.10;;;;;;8183588;28;20235;-64
2023/12/27 11:06:30;;;;;;;7.40;1.97;;;5.60;83.50;;;;;;8180709;28;20308;-64
2023/12/27 11:10:34;;;;;;;10.40;2.17;;;5.70;53.20;;;;;;8182510;28;20197;-63
2023/12/27 11:14:37;;;;;;;10.50;2.60;;;5.70;37.40;;;;;;8181216;28;20199;-63
2023/12/27 11:18:39;;;;;;;4.90;2.07;;;5.70;36.30;;;;;;8199095;28;20189;-64
2023/12/27 11:22:42;;;;;;;5.67;1.90;;;5.80;42.00;;;;;;8186356;28;20193;-64
2023/12/27 11:26:43;;;;;;;9.10;1.60;;;5.80;29.90;;;;;;8184424;28;20252;-64
2023/12/27 11:30:46;;;;;;;2.13;1.30;;;5.80;22.50;;;;;;8190040;28;20310;-64
2023/12/27 11:34:49;;;;;;;8.93;1.90;;;5.80;23.20;;;;;;8179712;28;20192;-64
2023/12/27 11:38:50;;;;;;;8.33;2.13;;;5.80;23.10;;;;;;8183877;28;20219;-65
2023/12/27 11:42:51;;;;;;;8.63;1.70;;;5.80;25.50;;;;;;8184594;28;20198;-64
2023/12/27 11:46:53;;;;;;;4.97;1.60;;;5.90;20.60;;;;;;8178312;28;20303;-65
2023/12/27 11:50:59;;;;;;;6.90;1.80;;;6.00;1.00;;;;;;8167564;28;20206;-65
2023/12/27 11:55:31;;;;;;;15.47;4.90;;;5.90;1.00;;;;;;8167625;29;20197;-64
2023/12/27 11:59:32;;;;;;;6.27;1.97;;;5.90;5.30;;;;;;8175306;29;20209;-65
2023/12/27 12:03:36;;;;;;;5.73;1.90;;;6.00;1.00;;;;;;8172526;28;20217;-65
2023/12/27 12:07:59;;;;;;;6.13;2.20;;;6.00;1.00;;;;;;8167345;28;20398;-66
2023/12/27 12:12:29;;;;;;;6.93;1.80;;;6.00;1.00;;;;;;8166568;28;20462;-64
2023/12/27 12:16:32;;;;;;;8.40;2.00;;;5.90;1.00;;;;;;8169204;28;20253;-64
2023/12/27 12:20:33;;;;;;;6.80;1.87;;;5.90;4.10;;;;;;8178078;28;20193;-65
2023/12/27 12:24:34;;;;;;;10.23;1.70;;;5.90;1.00;;;;;;8161426;29;20231;-65
2023/12/27 12:28:35;;;;;;;4.30;1.50;;;5.80;1.70;;;;;;8174784;28;20197;-65
2023/12/27 12:32:43;;;;;;;6.50;1.87;;;5.70;2.10;;;;;;8170834;28;20197;-65
2023/12/27 12:36:47;;;;;;;5.20;1.60;;;5.70;1.00;;;;;;8163075;28;20201;-65
2023/12/27 12:40:48;;;;;;;7.77;1.40;;;5.60;1.30;;;;;;8161716;28;20200;-65
2023/12/27 12:44:49;;;;;;;5.00;1.50;;;5.50;6.50;;;;;;8163981;28;20193;-64
2023/12/27 12:48:50;;;;;;;4.67;1.50;;;5.50;14.20;;;;;;8165527;28;20185;-65
2023/12/27 12:52:51;;;;;;;6.53;1.87;;;5.40;13.70;;;;;;8160320;28;20239;-64
2023/12/27 12:56:52;;;;;;;5.83;1.40;;;5.40;22.00;;;;;;8155851;28;20193;-65
2023/12/27 13:00:53;;;;;;;5.77;1.87;;;5.30;30.00;;;;;;8156934;28;20195;-65
2023/12/27 13:04:54;;;;;;;7.40;2.50;;;5.20;43.10;;;;;;8158729;28;20226;-65
2023/12/27 13:08:55;;;;;;;8.03;3.47;;;5.10;41.70;;;;;;8160639;28;20201;-65
2023/12/27 13:12:57;;;;;;;10.30;6.60;;;5.10;46.20;;;;;;8163603;28;20227;-65
2023/12/27 13:16:57;;;;;;;6.43;4.80;;;5.00;53.60;;;;;;8162436;28;20192;-65
2023/12/27 13:20:58;;;;;;;5.90;3.90;;;4.90;58.50;;;;;;8164626;28;20217;-65
2023/12/27 13:24:59;;;;;;;9.37;4.70;;;4.80;84.20;;;;;;8157327;28;20305;-65
2023/12/27 13:28:59;;;;;;;4.50;2.97;;;4.60;75.80;;;;;;8158414;28;20187;-65
2023/12/27 13:33:03;;;;;;;5.13;2.83;;;4.50;94.40;;;;;;8161411;28;20716;-65
2023/12/27 13:37:04;;;;;;;4.03;2.30;;;4.50;99.90;;;;;;8152171;28;20231;-65
2023/12/27 13:41:06;;;;;;;4.57;1.90;;;4.40;99.90;;;;;;8162255;29;20209;-65
2023/12/27 13:45:19;;;;;;;3.47;1.27;;;4.30;99.90;;;;;;8171804;28;20216;-67
2023/12/27 13:49:20;;;;;;;3.63;1.00;;;4.20;99.90;;;;;;8158984;28;20217;-65
2023/12/27 13:53:21;;;;;;;4.27;1.60;;;4.10;99.90;;;;;;8152844;28;20439;-65
2023/12/27 13:57:22;;;;;;;1.90;1.20;;;4.00;99.90;;;;;;8156543;28;20190;-65
2023/12/27 14:01:23;;;;;;;4.07;1.87;;;3.80;99.90;;;;;;8160001;28;20587;-65
2023/12/27 14:05:23;;;;;;;3.97;1.67;;;3.70;99.90;;;;;;8156355;29;20252;-63
2023/12/27 14:09:24;;;;;;;3.10;1.67;;;3.50;99.90;;;;;;8154130;29;20193;-63
2023/12/27 14:13:25;;;;;;;3.40;2.07;;;3.20;99.90;;;;;;8156329;29;20683;-63
2023/12/27 14:17:28;;;;;;;3.67;1.90;;;3.00;1.00;;;;;;8170014;28;20271;-63
2023/12/27 14:21:29;;;;;;;4.57;2.60;;;2.80;1.00;;;;;;8171851;28;20189;-63
2023/12/27 14:25:35;;;;;;;2.83;2.30;;;2.60;1.00;;;;;;8177244;28;20216;-62
2023/12/27 14:29:38;;;;;;;5.73;2.10;;;2.40;1.00;;;;;;8176226;28;20209;-64
2023/12/27 14:33:38;;;;;;;5.10;3.30;;;2.20;93.90;;;;;;8170128;28;20188;-63
2023/12/27 14:37:40;;;;;;;7.37;4.43;;;2.10;99.90;;;;;;8187346;28;20193;-63
2023/12/27 14:41:45;;;;;;;7.07;4.63;;;1.90;99.90;;;;;;8167149;28;20197;-62
2023/12/27 14:45:46;;;;;;;4.73;3.00;;;1.70;99.90;;;;;;8169690;28;20213;-62
2023/12/27 14:49:47;;;;;;;5.07;3.00;;;1.60;1.00;;;;;;8177373;28;20195;-63
2023/12/27 14:53:48;;;;;;;2.80;2.00;;;1.40;66.70;;;;;;8175115;28;20216;-63
2023/12/27 14:57:49;;;;;;;6.43;2.17;;;1.30;1.00;;;;;;8174659;29;20186;-64
2023/12/27 15:01:50;;;;;;;5.07;2.27;;;1.10;99.90;;;;;;8180758;28;20203;-64
2023/12/27 15:05:51;;;;;;;5.57;1.73;;;1.00;99.90;;;;;;8173493;28;20232;-65
2023/12/27 15:09:52;;;;;;;5.73;2.30;;;0.90;99.90;;;;;;8177051;28;20185;-64
2023/12/27 15:13:54;;;;;;;5.83;2.30;;;0.70;1.00;;;;;;8185516;28;20248;-64
2023/12/27 15:17:55;;;;;;;3.30;1.77;;;0.60;1.00;;;;;;8185034;28;20194;-63
2023/12/27 15:21:55;;;;;;;3.90;2.50;;;0.50;99.90;;;;;;8182842;28;20185;-62
2023/12/27 15:25:56;;;;;;;3.47;2.30;;;0.40;99.90;;;;;;8168739;28;20205;-64
2023/12/27 15:29:57;;;;;;;4.53;2.70;;;0.30;1.00;;;;;;8152624;28;20276;-64
2023/12/27 15:33:58;;;;;;;4.77;2.40;;;0.20;90.20;;;;;;8155555;28;20197;-64
2023/12/27 15:37:59;;;;;;;5.63;3.00;;;0.10;99.90;;;;;;8180853;29;20193;-64
2023/12/27 15:42:00;;;;;;;7.57;3.20;;;0.10;99.90;;;;;;8181325;28;20190;-64
2023/12/27 15:46:01;;;;;;;6.80;3.50;;;0.00;1.00;;;;;;8170367;28;20288;-64
2023/12/27 15:50:02;;;;;;;15.90;7.00;;;0.00;1.00;;;;;;8161060;28;20196;-64
2023/12/27 15:54:04;;;;;;;23.43;9.17;;;0.10;99.90;;;;;;8161983;28;20196;-64
2023/12/27 15:58:04;;;;;;;32.00;14.60;;;0.20;1.00;;;;;;8159239;28;20205;-64
2023/12/27 16:02:06;;;;;;;24.33;13.33;;;0.30;99.90;;;;;;8165970;28;20197;-64
2023/12/27 16:06:07;;;;;;;34.13;17.33;;;0.40;99.90;;;;;;8160304;28;20253;-64
2023/12/27 16:10:08;;;;;;;38.43;23.67;;;0.60;26.70;;;;;;8160188;28;20186;-64
2023/12/27 16:14:10;;;;;;;26.53;16.30;;;0.70;99.90;;;;;;8177133;28;20189;-64
2023/12/27 16:18:10;;;;;;;14.60;10.17;;;0.90;99.90;;;;;;8166977;28;20197;-62
2023/12/27 16:22:11;;;;;;;9.83;6.67;;;1.00;99.90;;;;;;8170696;28;20185;-64
2023/12/27 16:26:12;;;;;;;21.33;10.43;;;1.10;1.00;;;;;;8164457;28;20227;-64
2023/12/27 16:30:13;;;;;;;74.50;35.70;;;1.10;99.90;;;;;;8167176;28;20182;-64
2023/12/27 16:34:14;;;;;;;43.83;22.77;;;1.20;1.00;;;;;;8168562;28;20209;-64
2023/12/27 16:38:15;;;;;;;23.53;13.47;;;1.30;99.90;;;;;;8167681;29;20197;-64
2023/12/27 16:42:15;;;;;;;29.73;17.00;;;1.30;1.00;;;;;;8167912;29;20190;-65
2023/12/27 16:46:16;;;;;;;79.57;40.73;;;1.40;99.90;;;;;;8167926;28;20308;-65
2023/12/27 16:50:17;;;;;;;71.87;35.47;;;1.50;99.90;;;;;;8166074;28;20187;-64
2023/12/27 16:54:18;;;;;;;129.77;54.70;;;1.60;1.00;;;;;;8167053;28;20197;-64
2023/12/27 16:58:20;;;;;;;164.37;68.30;;;1.70;99.90;;;;;;8168936;28;20189;-64
2023/12/27 17:02:20;;;;;;;111.07;47.53;;;1.80;99.90;;;;;;8165989;28;20189;-64
2023/12/27 17:06:22;;;;;;;74.53;35.60;;;1.90;1.00;;;;;;8168135;28;20216;-65
2023/12/27 17:10:24;;;;;;;49.67;23.57;;;2.00;1.00;;;;;;8171090;28;20189;-64
2023/12/27 17:14:25;;;;;;;34.90;18.33;;;2.10;99.90;;;;;;8159050;28;20185;-65
2023/12/27 17:18:27;;;;;;;21.10;12.27;;;2.10;99.90;;;;;;8166515;28;20292;-64
2023/12/27 17:22:28;;;;;;;28.83;15.70;;;2.10;65.80;;;;;;8166782;29;20196;-65
2023/12/27 17:26:29;;;;;;;33.83;16.67;;;2.00;1.00;;;;;;8179385;28;20208;-64
2023/12/27 17:30:30;;;;;;;30.77;15.13;;;2.10;1.00;;;;;;8164721;28;20257;-64
2023/12/27 17:34:31;;;;;;;24.87;14.90;;;2.00;1.00;;;;;;8166098;28;20204;-65
2023/12/27 17:38:31;;;;;;;28.50;16.10;;;2.10;1.00;;;;;;8168580;28;20188;-64
2023/12/27 17:42:32;;;;;;;32.10;16.80;;;2.10;1.00;;;;;;8169151;28;20491;-64
2023/12/27 17:46:36;;;;;;;35.00;18.77;;;2.20;1.00;;;;;;8189697;28;20690;-65
2023/12/27 17:50:43;;;;;;;31.93;17.43;;;2.20;1.00;;;;;;8203983;28;20193;-65
2023/12/27 17:54:44;;;;;;;30.33;16.63;;;2.10;99.90;;;;;;8195269;28;20185;-63
2023/12/27 17:58:44;;;;;;;34.57;16.97;;;2.10;99.90;;;;;;8206932;28;20199;-63
2023/12/27 18:02:45;;;;;;;44.37;20.40;;;2.10;99.90;;;;;;8203793;28;20271;-65
2023/12/27 18:06:46;;;;;;;38.17;19.60;;;2.10;99.90;;;;;;8198449;28;20508;-64
2023/12/27 18:10:52;;;;;;;38.60;19.87;;;2.20;99.90;;;;;;8196668;28;20191;-64
2023/12/27 18:14:54;;;;;;;35.70;19.70;;;2.20;99.90;;;;;;8202108;28;20189;-64
2023/12/27 18:18:58;;;;;;;38.20;20.13;;;2.20;99.90;;;;;;8195227;28;20190;-65
2023/12/27 18:22:59;;;;;;;39.27;19.07;;;2.20;99.90;;;;;;8196270;28;20320;-65
2023/12/27 18:27:00;;;;;;;46.87;23.30;;;2.10;99.90;;;;;;8201976;28;20216;-63
2023/12/27 18:31:02;;;;;;;37.63;19.70;;;2.00;99.90;;;;;;8205736;28;20196;-63
2023/12/27 18:35:03;;;;;;;38.80;21.13;;;1.90;99.90;;;;;;8201917;28;20268;-63
2023/12/27 18:39:04;;;;;;;48.87;23.63;;;1.80;99.90;;;;;;8211535;28;20187;-63
2023/12/27 18:43:06;;;;;;;41.70;23.53;;;1.70;99.90;;;;;;8197427;28;20428;-63
2023/12/27 18:47:08;;;;;;;42.30;21.70;;;1.60;99.90;;;;;;8210220;28;20216;-62
2023/12/27 18:51:11;;;;;;;54.23;25.17;;;1.60;1.00;;;;;;8214093;28;20210;-63
2023/12/27 18:55:12;;;;;;;45.37;22.33;;;1.60;1.00;;;;;;8209495;28;20195;-63
2023/12/27 18:59:13;;;;;;;54.63;27.93;;;1.60;1.00;;;;;;8215224;28;20261;-63
2023/12/27 19:03:15;;;;;;;73.33;34.33;;;1.60;1.00;;;;;;8207041;28;20199;-64
2023/12/27 19:07:16;;;;;;;85.83;34.93;;;1.60;1.00;;;;;;8219851;28;20343;-63
2023/12/27 19:11:18;;;;;;;95.17;38.57;;;1.60;1.00;;;;;;8205694;28;20243;-65
2023/12/27 19:15:19;;;;;;;123.47;48.77;;;1.50;1.00;;;;;;8211631;28;20197;-64
2023/12/27 19:19:21;;;;;;;161.63;66.13;;;1.40;1.00;;;;;;8215025;28;20201;-62
2023/12/27 19:23:21;;;;;;;299.97;115.60;;;1.30;1.00;;;;;;8212396;28;20287;-64
2023/12/27 19:27:24;;;;;;;202.77;81.13;;;1.10;1.00;;;;;;8209898;28;20220;-65
2023/12/27 19:31:24;;;;;;;342.60;126.13;;;1.10;1.00;;;;;;8206220;28;20200;-63
2023/12/27 19:35:25;;;;;;;85.37;43.77;;;1.00;1.00;;;;;;8207048;28;20304;-64
2023/12/27 19:39:26;;;;;;;103.23;52.33;;;1.00;99.90;;;;;;8196663;28;20239;-62
2023/12/27 19:43:27;;;;;;;230.67;91.63;;;0.90;99.90;;;;;;8232705;28;20326;-63
2023/12/27 19:47:28;;;;;;;252.57;98.50;;;1.00;1.00;;;;;;8235258;28;20215;-64
2023/12/27 19:51:30;;;;;;;220.27;88.40;;;1.00;1.00;;;;;;8233098;28;20183;-64
2023/12/27 19:55:30;;;;;;;232.10;99.50;;;1.00;99.90;;;;;;8222384;28;20337;-63
2023/12/27 19:59:31;;;;;;;312.93;129.33;;;1.10;1.00;;;;;;8229273;28;20195;-63
2023/12/27 20:03:33;;;;;;;200.70;78.33;;;1.10;1.00;;;;;;8231581;28;20251;-64
2023/12/27 20:07:34;;;;;;;224.43;94.23;;;1.10;1.00;;;;;;8247778;28;20467;-63
2023/12/27 20:11:36;;;;;;;258.77;111.83;;;1.20;99.90;;;;;;8232841;28;20188;-64
2023/12/27 20:15:37;;;;;;;237.73;99.30;;;1.10;99.90;;;;;;8237277;28;20273;-64
2023/12/27 20:19:38;;;;;;;149.10;65.33;;;1.10;99.90;;;;;;8230382;28;21387;-64
2023/12/27 20:23:40;;;;;;;97.13;44.90;;;1.10;99.90;;;;;;8232642;28;20220;-64
2023/12/27 20:27:41;;;;;;;72.87;33.73;;;1.00;99.90;;;;;;8239733;28;20310;-63
2023/12/27 20:31:41;;;;;;;44.00;21.93;;;1.00;1.00;;;;;;8234610;28;20203;-63
2023/12/27 20:35:42;;;;;;;34.43;18.47;;;1.00;1.00;;;;;;8235097;28;20460;-63
2023/12/27 20:39:43;;;;;;;37.10;19.80;;;1.00;1.00;;;;;;8234692;28;20258;-63
2023/12/27 20:43:44;;;;;;;36.37;18.73;;;1.00;1.00;;;;;;8237045;28;20204;-64
2023/12/27 20:47:46;;;;;;;42.17;19.47;;;1.00;41.00;;;;;;8241556;28;20212;-63
2023/12/27 20:51:47;;;;;;;35.50;19.57;;;1.00;99.90;;;;;;8237587;28;20311;-62
2023/12/27 20:55:48;;;;;;;38.00;19.87;;;1.00;95.10;;;;;;8237463;28;20199;-63
2023/12/27 20:59:49;;;;;;;39.23;20.80;;;1.00;1.00;;;;;;8240442;28;20195;-63
2023/12/27 21:03:50;;;;;;;38.13;20.33;;;1.00;99.90;;;;;;8246272;28;20236;-64
2023/12/27 21:07:51;;;;;;;35.17;20.37;;;1.00;99.90;;;;;;8247936;28;20216;-63